createdAt,value
2018-07-17T00:00:11.654Z,1021.57171587
2018-07-17T00:00:24.272Z,1021.57171587
2018-07-17T00:00:36.713Z,1021.57171587
2018-07-17T00:00:49.182Z,1021.57171587
2018-07-17T00:01:01.605Z,1021.47012423
2018-07-17T00:01:14.043Z,1021.47012423
2018-07-17T00:01:26.516Z,1021.47012423
2018-07-17T00:01:38.936Z,1021.47012423
2018-07-17T00:01:51.601Z,1021.47012423
2018-07-17T00:02:04.093Z,1021.50398811
2018-07-17T00:02:16.527Z,1021.50398811
2018-07-17T00:02:29.121Z,1021.50398811
2018-07-17T00:02:41.519Z,1021.50398811
2018-07-17T00:02:53.954Z,1021.50398811
2018-07-17T00:03:06.433Z,1021.43626034
2018-07-17T00:03:18.839Z,1021.43626034
2018-07-17T00:03:31.282Z,1021.43626034
2018-07-17T00:03:43.700Z,1021.43626034
2018-07-17T00:03:56.148Z,1021.43626034
2018-07-17T00:04:08.541Z,1021.53785199
2018-07-17T00:04:20.955Z,1021.53785199
2018-07-17T00:04:33.345Z,1021.53785199
2018-07-17T00:04:45.740Z,1021.53785199
2018-07-17T00:04:58.379Z,1021.53785199
2018-07-17T00:05:10.793Z,1021.50398811
2018-07-17T00:05:23.192Z,1021.50398811
2018-07-17T00:05:35.672Z,1021.50398811
2018-07-17T00:05:48.073Z,1021.50398811
2018-07-17T00:06:00.500Z,1021.47012423
2018-07-17T00:06:12.900Z,1021.47012423
2018-07-17T00:06:25.308Z,1021.47012423
2018-07-17T00:06:37.721Z,1021.47012423
2018-07-17T00:06:50.134Z,1021.47012423
2018-07-17T00:07:02.551Z,1021.47012423
2018-07-17T00:07:14.968Z,1021.47012423
2018-07-17T00:07:27.492Z,1021.47012423
2018-07-17T00:07:39.897Z,1021.47012423
2018-07-17T00:07:52.290Z,1021.47012423
2018-07-17T00:08:04.704Z,1021.43626034
2018-07-17T00:08:17.264Z,1021.43626034
2018-07-17T00:08:29.688Z,1021.43626034
2018-07-17T00:08:42.125Z,1021.43626034
2018-07-17T00:08:54.525Z,1021.43626034
2018-07-17T00:09:06.942Z,1021.53785199
2018-07-17T00:09:19.342Z,1021.53785199
2018-07-17T00:09:31.844Z,1021.53785199
2018-07-17T00:09:45.297Z,1021.53785199
2018-07-17T00:09:57.914Z,1021.53785199
2018-07-17T00:10:10.329Z,1021.53785199
2018-07-17T00:10:22.723Z,1021.53785199
2018-07-17T00:10:35.151Z,1021.53785199
2018-07-17T00:10:47.606Z,1021.53785199
2018-07-17T00:11:00.016Z,1021.40239646
2018-07-17T00:11:12.585Z,1021.40239646
2018-07-17T00:11:25.056Z,1021.40239646
2018-07-17T00:11:37.452Z,1021.40239646
2018-07-17T00:11:49.872Z,1021.40239646
2018-07-17T00:12:02.347Z,1021.43626034
2018-07-17T00:12:14.836Z,1021.43626034
2018-07-17T00:12:27.311Z,1021.43626034
2018-07-17T00:12:40.018Z,1021.43626034
2018-07-17T00:12:53.621Z,1021.43626034
2018-07-17T00:13:06.264Z,1021.40239646
2018-07-17T00:13:18.682Z,1021.40239646
2018-07-17T00:13:31.154Z,1021.40239646
2018-07-17T00:13:43.584Z,1021.40239646
2018-07-17T00:13:56.000Z,1021.40239646
2018-07-17T00:14:08.407Z,1021.40239646
2018-07-17T00:14:20.797Z,1021.40239646
2018-07-17T00:14:33.194Z,1021.40239646
2018-07-17T00:14:45.601Z,1021.40239646
2018-07-17T00:14:58.001Z,1021.40239646
2018-07-17T00:15:10.417Z,1021.43626034
2018-07-17T00:15:22.882Z,1021.43626034
2018-07-17T00:15:35.322Z,1021.43626034
2018-07-17T00:15:47.716Z,1021.43626034
2018-07-17T00:16:00.145Z,1021.3346687
2018-07-17T00:16:12.563Z,1021.3346687
2018-07-17T00:16:25.045Z,1021.3346687
2018-07-17T00:16:37.524Z,1021.3346687
2018-07-17T00:16:49.929Z,1021.3346687
2018-07-17T00:17:02.381Z,1021.36853258
2018-07-17T00:17:14.793Z,1021.36853258
2018-07-17T00:17:27.197Z,1021.36853258
2018-07-17T00:17:39.595Z,1021.36853258
2018-07-17T00:17:52.062Z,1021.36853258
2018-07-17T00:18:04.488Z,1021.40239646
2018-07-17T00:18:16.893Z,1021.40239646
2018-07-17T00:18:29.297Z,1021.40239646
2018-07-17T00:18:41.711Z,1021.40239646
2018-07-17T00:18:54.100Z,1021.40239646
2018-07-17T00:19:06.494Z,1021.40239646
2018-07-17T00:19:18.917Z,1021.40239646
2018-07-17T00:19:31.324Z,1021.40239646
2018-07-17T00:19:43.743Z,1021.40239646
2018-07-17T00:19:56.152Z,1021.40239646
2018-07-17T00:20:08.560Z,1021.30080482
2018-07-17T00:20:20.962Z,1021.30080482
2018-07-17T00:20:33.366Z,1021.30080482
2018-07-17T00:20:45.856Z,1021.30080482
2018-07-17T00:20:58.262Z,1021.30080482
2018-07-17T00:21:10.740Z,1021.3346687
2018-07-17T00:21:23.182Z,1021.3346687
2018-07-17T00:21:35.602Z,1021.3346687
2018-07-17T00:21:48.036Z,1021.3346687
2018-07-17T00:22:00.452Z,1021.3346687
2018-07-17T00:22:12.853Z,1021.3346687
2018-07-17T00:22:25.241Z,1021.3346687
2018-07-17T00:22:37.664Z,1021.3346687
2018-07-17T00:22:50.070Z,1021.3346687
2018-07-17T00:23:02.478Z,1021.26694094
2018-07-17T00:23:14.933Z,1021.26694094
2018-07-17T00:23:27.340Z,1021.26694094
2018-07-17T00:23:39.803Z,1021.26694094
2018-07-17T00:23:52.227Z,1021.26694094
2018-07-17T00:24:04.653Z,1021.36853258
2018-07-17T00:24:17.066Z,1021.36853258
2018-07-17T00:24:29.457Z,1021.36853258
2018-07-17T00:24:41.854Z,1021.36853258
2018-07-17T00:24:54.255Z,1021.36853258
2018-07-17T00:25:06.682Z,1021.3346687
2018-07-17T00:25:19.137Z,1021.3346687
2018-07-17T00:25:31.557Z,1021.3346687
2018-07-17T00:25:44.138Z,1021.3346687
2018-07-17T00:25:56.549Z,1021.3346687
2018-07-17T00:26:08.947Z,1021.3346687
2018-07-17T00:26:21.355Z,1021.3346687
2018-07-17T00:26:33.768Z,1021.3346687
2018-07-17T00:26:46.196Z,1021.3346687
2018-07-17T00:26:58.625Z,1021.3346687
2018-07-17T00:27:11.028Z,1021.3346687
2018-07-17T00:27:23.423Z,1021.3346687
2018-07-17T00:27:35.836Z,1021.3346687
2018-07-17T00:27:48.227Z,1021.3346687
2018-07-17T00:28:00.623Z,1021.40239646
2018-07-17T00:28:13.031Z,1021.40239646
2018-07-17T00:28:25.448Z,1021.40239646
2018-07-17T00:28:37.863Z,1021.40239646
2018-07-17T00:28:50.268Z,1021.40239646
2018-07-17T00:29:02.694Z,1021.3346687
2018-07-17T00:29:15.099Z,1021.3346687
2018-07-17T00:29:27.495Z,1021.3346687
2018-07-17T00:29:39.897Z,1021.3346687
2018-07-17T00:29:52.462Z,1021.3346687
2018-07-17T00:30:04.880Z,1021.3346687
2018-07-17T00:30:17.279Z,1021.3346687
2018-07-17T00:30:29.680Z,1021.3346687
2018-07-17T00:30:42.157Z,1021.3346687
2018-07-17T00:30:54.583Z,1021.3346687
2018-07-17T00:31:07.009Z,1021.26694094
2018-07-17T00:31:19.511Z,1021.26694094
2018-07-17T00:31:31.972Z,1021.26694094
2018-07-17T00:31:44.380Z,1021.26694094
2018-07-17T00:31:56.775Z,1021.26694094
2018-07-17T00:32:09.194Z,1021.40239646
2018-07-17T00:32:21.593Z,1021.40239646
2018-07-17T00:32:33.994Z,1021.40239646
2018-07-17T00:32:46.404Z,1021.40239646
2018-07-17T00:32:58.814Z,1021.36853258
2018-07-17T00:33:11.225Z,1021.36853258
2018-07-17T00:33:23.666Z,1021.36853258
2018-07-17T00:33:36.062Z,1021.36853258
2018-07-17T00:33:48.459Z,1021.36853258
2018-07-17T00:34:00.849Z,1021.3346687
2018-07-17T00:34:13.383Z,1021.3346687
2018-07-17T00:34:25.782Z,1021.3346687
2018-07-17T00:34:38.189Z,1021.3346687
2018-07-17T00:34:50.625Z,1021.3346687
2018-07-17T00:35:03.072Z,1021.36853258
2018-07-17T00:35:15.476Z,1021.36853258
2018-07-17T00:35:27.860Z,1021.36853258
2018-07-17T00:35:40.270Z,1021.36853258
2018-07-17T00:35:52.695Z,1021.36853258
2018-07-17T00:36:05.151Z,1021.40239646
2018-07-17T00:36:17.580Z,1021.40239646
2018-07-17T00:36:30.009Z,1021.40239646
2018-07-17T00:36:42.396Z,1021.40239646
2018-07-17T00:36:54.841Z,1021.40239646
2018-07-17T00:37:07.258Z,1021.40239646
2018-07-17T00:37:19.668Z,1021.40239646
2018-07-17T00:37:32.060Z,1021.40239646
2018-07-17T00:37:44.533Z,1021.40239646
2018-07-17T00:37:56.982Z,1021.40239646
2018-07-17T00:38:09.394Z,1021.3346687
2018-07-17T00:38:21.789Z,1021.3346687
2018-07-17T00:38:34.201Z,1021.3346687
2018-07-17T00:38:46.580Z,1021.3346687
2018-07-17T00:38:58.985Z,1021.30080482
2018-07-17T00:39:11.472Z,1021.30080482
2018-07-17T00:39:23.852Z,1021.30080482
2018-07-17T00:39:36.281Z,1021.30080482
2018-07-17T00:39:48.676Z,1021.30080482
2018-07-17T00:40:01.073Z,1021.3346687
2018-07-17T00:40:13.503Z,1021.3346687
2018-07-17T00:40:25.895Z,1021.3346687
2018-07-17T00:40:38.358Z,1021.3346687
2018-07-17T00:40:50.761Z,1021.3346687
2018-07-17T00:41:03.163Z,1021.3346687
2018-07-17T00:41:15.578Z,1021.3346687
2018-07-17T00:41:28.006Z,1021.3346687
2018-07-17T00:41:40.423Z,1021.3346687
2018-07-17T00:41:52.856Z,1021.3346687
2018-07-17T00:42:05.263Z,1021.26694094
2018-07-17T00:42:17.683Z,1021.26694094
2018-07-17T00:42:30.102Z,1021.26694094
2018-07-17T00:42:42.508Z,1021.26694094
2018-07-17T00:42:54.944Z,1021.26694094
2018-07-17T00:43:07.354Z,1021.36853258
2018-07-17T00:43:19.768Z,1021.36853258
2018-07-17T00:43:32.176Z,1021.36853258
2018-07-17T00:43:44.591Z,1021.36853258
2018-07-17T00:43:57.074Z,1021.36853258
2018-07-17T00:44:09.538Z,1021.36853258
2018-07-17T00:44:21.981Z,1021.36853258
2018-07-17T00:44:34.386Z,1021.36853258
2018-07-17T00:44:46.803Z,1021.36853258
2018-07-17T00:44:59.211Z,1021.40239646
2018-07-17T00:45:11.619Z,1021.40239646
2018-07-17T00:45:24.047Z,1021.40239646
2018-07-17T00:45:36.468Z,1021.40239646
2018-07-17T00:45:48.877Z,1021.40239646
2018-07-17T00:46:01.292Z,1021.36853258
2018-07-17T00:46:13.700Z,1021.36853258
2018-07-17T00:46:26.111Z,1021.36853258
2018-07-17T00:46:38.519Z,1021.36853258
2018-07-17T00:46:50.946Z,1021.36853258
2018-07-17T00:47:03.360Z,1021.40239646
2018-07-17T00:47:15.782Z,1021.40239646
2018-07-17T00:47:28.186Z,1021.40239646
2018-07-17T00:47:40.582Z,1021.40239646
2018-07-17T00:47:52.972Z,1021.40239646
2018-07-17T00:48:05.586Z,1021.40239646
2018-07-17T00:48:18.007Z,1021.40239646
2018-07-17T00:48:30.421Z,1021.40239646
2018-07-17T00:48:42.829Z,1021.40239646
2018-07-17T00:48:55.334Z,1021.40239646
2018-07-17T00:49:07.731Z,1021.36853258
2018-07-17T00:49:20.130Z,1021.36853258
2018-07-17T00:49:32.610Z,1021.36853258
2018-07-17T00:49:45.024Z,1021.36853258
2018-07-17T00:49:57.430Z,1021.36853258
2018-07-17T00:50:09.851Z,1021.36853258
2018-07-17T00:50:22.252Z,1021.36853258
2018-07-17T00:50:34.641Z,1021.36853258
2018-07-17T00:50:47.055Z,1021.36853258
2018-07-17T00:50:59.463Z,1021.36853258
2018-07-17T00:51:11.938Z,1021.36853258
2018-07-17T00:51:24.332Z,1021.36853258
2018-07-17T00:51:36.736Z,1021.36853258
2018-07-17T00:51:49.163Z,1021.36853258
2018-07-17T00:52:01.558Z,1021.3346687
2018-07-17T00:52:13.955Z,1021.3346687
2018-07-17T00:52:26.349Z,1021.3346687
2018-07-17T00:52:38.802Z,1021.3346687
2018-07-17T00:52:51.205Z,1021.3346687
2018-07-17T00:53:03.827Z,1021.40239646
2018-07-17T00:53:16.242Z,1021.40239646
2018-07-17T00:53:28.660Z,1021.40239646
2018-07-17T00:53:41.193Z,1021.40239646
2018-07-17T00:53:53.694Z,1021.40239646
2018-07-17T00:54:06.111Z,1021.30080482
2018-07-17T00:54:18.528Z,1021.30080482
2018-07-17T00:54:30.943Z,1021.30080482
2018-07-17T00:54:43.328Z,1021.30080482
2018-07-17T00:54:55.809Z,1021.30080482
2018-07-17T00:55:08.530Z,1021.36853258
2018-07-17T00:55:20.997Z,1021.36853258
2018-07-17T00:55:33.508Z,1021.36853258
2018-07-17T00:55:46.885Z,1021.36853258
2018-07-17T00:55:59.292Z,1021.36853258
2018-07-17T00:56:11.681Z,1021.36853258
2018-07-17T00:56:24.074Z,1021.36853258
2018-07-17T00:56:36.486Z,1021.36853258
2018-07-17T00:56:48.874Z,1021.36853258
2018-07-17T00:57:01.288Z,1021.3346687
2018-07-17T00:57:13.688Z,1021.3346687
2018-07-17T00:57:26.118Z,1021.3346687
2018-07-17T00:57:38.537Z,1021.3346687
2018-07-17T00:57:51.042Z,1021.3346687
2018-07-17T00:58:03.457Z,1021.36853258
2018-07-17T00:58:15.901Z,1021.36853258
2018-07-17T00:58:28.298Z,1021.36853258
2018-07-17T00:58:40.699Z,1021.36853258
2018-07-17T00:58:53.139Z,1021.36853258
2018-07-17T00:59:05.539Z,1021.40239646
2018-07-17T00:59:17.955Z,1021.40239646
2018-07-17T00:59:30.361Z,1021.40239646
2018-07-17T00:59:42.801Z,1021.40239646
2018-07-17T00:59:55.226Z,1021.40239646
2018-07-17T01:00:07.671Z,1021.36853258
2018-07-17T01:00:20.271Z,1021.36853258
2018-07-17T01:00:32.703Z,1021.36853258
2018-07-17T01:00:45.110Z,1021.36853258
2018-07-17T01:00:57.688Z,1021.36853258
2018-07-17T01:01:11.173Z,1021.36853258
2018-07-17T01:01:23.967Z,1021.36853258
2018-07-17T01:01:36.383Z,1021.36853258
2018-07-17T01:01:48.870Z,1021.36853258
2018-07-17T01:02:01.455Z,1021.40239646
2018-07-17T01:02:13.879Z,1021.40239646
2018-07-17T01:02:26.333Z,1021.40239646
2018-07-17T01:02:38.749Z,1021.40239646
2018-07-17T01:02:51.178Z,1021.40239646
2018-07-17T01:03:03.578Z,1021.30080482
2018-07-17T01:03:16.017Z,1021.30080482
2018-07-17T01:03:28.421Z,1021.30080482
2018-07-17T01:03:40.953Z,1021.30080482
2018-07-17T01:03:53.385Z,1021.30080482
2018-07-17T01:04:05.849Z,1021.43626034
2018-07-17T01:04:18.277Z,1021.43626034
2018-07-17T01:04:30.708Z,1021.43626034
2018-07-17T01:04:43.137Z,1021.43626034
2018-07-17T01:04:55.801Z,1021.43626034
2018-07-17T01:05:08.200Z,1021.40239646
2018-07-17T01:05:20.599Z,1021.40239646
2018-07-17T01:05:33.007Z,1021.40239646
2018-07-17T01:05:45.434Z,1021.40239646
2018-07-17T01:05:57.859Z,1021.40239646
2018-07-17T01:06:10.327Z,1021.36853258
2018-07-17T01:06:22.741Z,1021.36853258
2018-07-17T01:06:35.215Z,1021.36853258
2018-07-17T01:06:47.611Z,1021.36853258
2018-07-17T01:07:00.317Z,1021.36853258
2018-07-17T01:07:13.487Z,1021.36853258
2018-07-17T01:07:26.484Z,1021.36853258
2018-07-17T01:07:38.899Z,1021.36853258
2018-07-17T01:07:51.310Z,1021.36853258
2018-07-17T01:08:03.718Z,1021.43626034
2018-07-17T01:08:16.109Z,1021.43626034
2018-07-17T01:08:28.546Z,1021.43626034
2018-07-17T01:08:40.955Z,1021.43626034
2018-07-17T01:08:53.386Z,1021.43626034
2018-07-17T01:09:05.790Z,1021.47012423
2018-07-17T01:09:18.191Z,1021.47012423
2018-07-17T01:09:30.585Z,1021.47012423
2018-07-17T01:09:43.076Z,1021.47012423
2018-07-17T01:09:55.482Z,1021.47012423
2018-07-17T01:10:07.902Z,1021.47012423
2018-07-17T01:10:20.305Z,1021.47012423
2018-07-17T01:10:32.716Z,1021.47012423
2018-07-17T01:10:45.120Z,1021.47012423
2018-07-17T01:10:57.529Z,1021.47012423
2018-07-17T01:11:09.933Z,1021.43626034
2018-07-17T01:11:22.352Z,1021.43626034
2018-07-17T01:11:34.805Z,1021.43626034
2018-07-17T01:11:47.468Z,1021.43626034
2018-07-17T01:11:59.877Z,1021.36853258
2018-07-17T01:12:12.350Z,1021.36853258
2018-07-17T01:12:24.742Z,1021.36853258
2018-07-17T01:12:37.143Z,1021.36853258
2018-07-17T01:12:49.620Z,1021.36853258
2018-07-17T01:13:02.290Z,1021.47012423
2018-07-17T01:13:14.704Z,1021.47012423
2018-07-17T01:13:27.112Z,1021.47012423
2018-07-17T01:13:39.525Z,1021.47012423
2018-07-17T01:13:51.929Z,1021.47012423
2018-07-17T01:14:04.327Z,1021.43626034
2018-07-17T01:14:16.728Z,1021.43626034
2018-07-17T01:14:29.129Z,1021.43626034
2018-07-17T01:14:41.537Z,1021.43626034
2018-07-17T01:14:53.945Z,1021.43626034
2018-07-17T01:15:06.359Z,1021.40239646
2018-07-17T01:15:18.816Z,1021.40239646
2018-07-17T01:15:31.219Z,1021.40239646
2018-07-17T01:15:43.631Z,1021.40239646
2018-07-17T01:15:56.053Z,1021.40239646
2018-07-17T01:16:08.479Z,1021.43626034
2018-07-17T01:16:20.862Z,1021.43626034
2018-07-17T01:16:33.265Z,1021.43626034
2018-07-17T01:16:45.675Z,1021.43626034
2018-07-17T01:16:58.075Z,1021.43626034
2018-07-17T01:17:10.480Z,1021.43626034
2018-07-17T01:17:22.883Z,1021.43626034
2018-07-17T01:17:35.295Z,1021.43626034
2018-07-17T01:17:47.901Z,1021.43626034
2018-07-17T01:18:00.318Z,1021.43626034
2018-07-17T01:18:12.722Z,1021.43626034
2018-07-17T01:18:25.134Z,1021.43626034
2018-07-17T01:18:37.541Z,1021.43626034
2018-07-17T01:18:49.940Z,1021.43626034
2018-07-17T01:19:02.351Z,1021.40239646
2018-07-17T01:19:14.748Z,1021.40239646
2018-07-17T01:19:27.301Z,1021.40239646
2018-07-17T01:19:39.707Z,1021.40239646
2018-07-17T01:19:52.101Z,1021.40239646
2018-07-17T01:20:04.491Z,1021.50398811
2018-07-17T01:20:16.887Z,1021.50398811
2018-07-17T01:20:29.280Z,1021.50398811
2018-07-17T01:20:41.769Z,1021.50398811
2018-07-17T01:20:54.158Z,1021.50398811
2018-07-17T01:21:06.554Z,1021.36853258
2018-07-17T01:21:18.961Z,1021.36853258
2018-07-17T01:21:31.380Z,1021.36853258
2018-07-17T01:21:43.788Z,1021.36853258
2018-07-17T01:21:56.184Z,1021.36853258
2018-07-17T01:22:08.583Z,1021.36853258
2018-07-17T01:22:20.968Z,1021.36853258
2018-07-17T01:22:33.358Z,1021.36853258
2018-07-17T01:22:45.804Z,1021.36853258
2018-07-17T01:22:58.201Z,1021.36853258
2018-07-17T01:23:10.680Z,1021.40239646
2018-07-17T01:23:23.119Z,1021.40239646
2018-07-17T01:23:35.549Z,1021.40239646
2018-07-17T01:23:47.946Z,1021.40239646
2018-07-17T01:24:00.345Z,1021.36853258
2018-07-17T01:24:12.770Z,1021.36853258
2018-07-17T01:24:25.170Z,1021.36853258
2018-07-17T01:24:37.580Z,1021.36853258
2018-07-17T01:24:50.007Z,1021.36853258
2018-07-17T01:25:02.479Z,1021.43626034
2018-07-17T01:25:14.889Z,1021.43626034
2018-07-17T01:25:27.273Z,1021.43626034
2018-07-17T01:25:39.837Z,1021.43626034
2018-07-17T01:25:52.417Z,1021.43626034
2018-07-17T01:26:04.826Z,1021.40239646
2018-07-17T01:26:17.234Z,1021.40239646
2018-07-17T01:26:29.636Z,1021.40239646
2018-07-17T01:26:42.049Z,1021.40239646
2018-07-17T01:26:54.462Z,1021.40239646
2018-07-17T01:27:06.864Z,1021.43626034
2018-07-17T01:27:19.268Z,1021.43626034
2018-07-17T01:27:31.699Z,1021.43626034
2018-07-17T01:27:44.107Z,1021.43626034
2018-07-17T01:27:56.520Z,1021.43626034
2018-07-17T01:28:08.971Z,1021.40239646
2018-07-17T01:28:21.436Z,1021.40239646
2018-07-17T01:28:33.834Z,1021.40239646
2018-07-17T01:28:46.226Z,1021.40239646
2018-07-17T01:28:58.611Z,1021.40239646
2018-07-17T01:29:10.996Z,1021.43626034
2018-07-17T01:29:23.375Z,1021.43626034
2018-07-17T01:29:35.810Z,1021.43626034
2018-07-17T01:29:48.364Z,1021.43626034
2018-07-17T01:30:00.758Z,1021.36853258
2018-07-17T01:30:13.171Z,1021.36853258
2018-07-17T01:30:25.573Z,1021.36853258
2018-07-17T01:30:37.992Z,1021.36853258
2018-07-17T01:30:50.391Z,1021.36853258
2018-07-17T01:31:02.798Z,1021.47012423
2018-07-17T01:31:15.358Z,1021.47012423
2018-07-17T01:31:27.767Z,1021.47012423
2018-07-17T01:31:40.237Z,1021.47012423
2018-07-17T01:31:52.722Z,1021.47012423
2018-07-17T01:32:05.130Z,1021.43626034
2018-07-17T01:32:17.536Z,1021.43626034
2018-07-17T01:32:29.940Z,1021.43626034
2018-07-17T01:32:42.342Z,1021.43626034
2018-07-17T01:32:54.774Z,1021.43626034
2018-07-17T01:33:07.188Z,1021.43626034
2018-07-17T01:33:19.590Z,1021.43626034
2018-07-17T01:33:31.992Z,1021.43626034
2018-07-17T01:33:44.381Z,1021.43626034
2018-07-17T01:33:56.848Z,1021.43626034
2018-07-17T01:34:09.254Z,1021.50398811
2018-07-17T01:34:21.648Z,1021.50398811
2018-07-17T01:34:34.049Z,1021.50398811
2018-07-17T01:34:46.429Z,1021.50398811
2018-07-17T01:34:58.856Z,1021.43626034
2018-07-17T01:35:11.259Z,1021.43626034
2018-07-17T01:35:23.681Z,1021.43626034
2018-07-17T01:35:36.092Z,1021.43626034
2018-07-17T01:35:48.488Z,1021.43626034
2018-07-17T01:36:00.906Z,1021.43626034
2018-07-17T01:36:13.355Z,1021.43626034
2018-07-17T01:36:25.758Z,1021.43626034
2018-07-17T01:36:38.155Z,1021.43626034
2018-07-17T01:36:50.545Z,1021.43626034
2018-07-17T01:37:02.921Z,1021.47012423
2018-07-17T01:37:15.326Z,1021.47012423
2018-07-17T01:37:27.731Z,1021.47012423
2018-07-17T01:37:40.124Z,1021.47012423
2018-07-17T01:37:52.547Z,1021.47012423
2018-07-17T01:38:04.938Z,1021.43626034
2018-07-17T01:38:17.408Z,1021.43626034
2018-07-17T01:38:30.584Z,1021.43626034
2018-07-17T01:38:43.726Z,1021.43626034
2018-07-17T01:38:56.158Z,1021.43626034
2018-07-17T01:39:08.568Z,1021.43626034
2018-07-17T01:39:20.981Z,1021.43626034
2018-07-17T01:39:33.397Z,1021.43626034
2018-07-17T01:39:45.795Z,1021.43626034
2018-07-17T01:39:58.198Z,1021.43626034
2018-07-17T01:40:10.631Z,1021.40239646
2018-07-17T01:40:23.035Z,1021.40239646
2018-07-17T01:40:35.430Z,1021.40239646
2018-07-17T01:40:47.833Z,1021.40239646
2018-07-17T01:41:00.220Z,1021.36853258
2018-07-17T01:41:12.660Z,1021.36853258
2018-07-17T01:41:25.066Z,1021.36853258
2018-07-17T01:41:37.502Z,1021.36853258
2018-07-17T01:41:49.911Z,1021.36853258
2018-07-17T01:42:02.327Z,1021.40239646
2018-07-17T01:42:14.743Z,1021.40239646
2018-07-17T01:42:27.145Z,1021.40239646
2018-07-17T01:42:39.556Z,1021.40239646
2018-07-17T01:42:52.010Z,1021.40239646
2018-07-17T01:43:05.185Z,1021.40239646
2018-07-17T01:43:18.045Z,1021.40239646
2018-07-17T01:43:30.456Z,1021.40239646
2018-07-17T01:43:42.854Z,1021.40239646
2018-07-17T01:43:55.312Z,1021.40239646
2018-07-17T01:44:07.707Z,1021.36853258
2018-07-17T01:44:20.116Z,1021.36853258
2018-07-17T01:44:32.551Z,1021.36853258
2018-07-17T01:44:44.952Z,1021.36853258
2018-07-17T01:44:57.431Z,1021.36853258
2018-07-17T01:45:09.876Z,1021.36853258
2018-07-17T01:45:22.284Z,1021.36853258
2018-07-17T01:45:34.759Z,1021.36853258
2018-07-17T01:45:47.237Z,1021.36853258
2018-07-17T01:45:59.688Z,1021.36853258
2018-07-17T01:46:12.212Z,1021.36853258
2018-07-17T01:46:24.623Z,1021.36853258
2018-07-17T01:46:37.078Z,1021.36853258
2018-07-17T01:46:49.487Z,1021.36853258
2018-07-17T01:47:01.904Z,1021.40239646
2018-07-17T01:47:14.298Z,1021.40239646
2018-07-17T01:47:26.706Z,1021.40239646
2018-07-17T01:47:39.121Z,1021.40239646
2018-07-17T01:47:51.513Z,1021.40239646
2018-07-17T01:48:03.964Z,1021.3346687
2018-07-17T01:48:16.393Z,1021.3346687
2018-07-17T01:48:28.802Z,1021.3346687
2018-07-17T01:48:41.197Z,1021.3346687
2018-07-17T01:48:53.726Z,1021.3346687
2018-07-17T01:49:06.147Z,1021.3346687
2018-07-17T01:49:18.543Z,1021.3346687
2018-07-17T01:49:30.931Z,1021.3346687
2018-07-17T01:49:43.362Z,1021.3346687
2018-07-17T01:49:55.829Z,1021.3346687
2018-07-17T01:50:08.244Z,1021.3346687
2018-07-17T01:50:20.661Z,1021.3346687
2018-07-17T01:50:33.066Z,1021.3346687
2018-07-17T01:50:45.469Z,1021.3346687
2018-07-17T01:50:57.867Z,1021.3346687
2018-07-17T01:51:10.286Z,1021.36853258
2018-07-17T01:51:22.938Z,1021.36853258
2018-07-17T01:51:35.355Z,1021.36853258
2018-07-17T01:51:47.774Z,1021.36853258
2018-07-17T01:52:00.214Z,1021.3346687
2018-07-17T01:52:12.653Z,1021.3346687
2018-07-17T01:52:25.067Z,1021.3346687
2018-07-17T01:52:37.467Z,1021.3346687
2018-07-17T01:52:49.852Z,1021.3346687
2018-07-17T01:53:02.263Z,1021.36853258
2018-07-17T01:53:14.661Z,1021.36853258
2018-07-17T01:53:27.085Z,1021.36853258
2018-07-17T01:53:39.495Z,1021.36853258
2018-07-17T01:53:51.909Z,1021.36853258
2018-07-17T01:54:04.311Z,1021.26694094
2018-07-17T01:54:16.693Z,1021.26694094
2018-07-17T01:54:29.141Z,1021.26694094
2018-07-17T01:54:41.561Z,1021.26694094
2018-07-17T01:54:53.972Z,1021.26694094
2018-07-17T01:55:06.514Z,1021.36853258
2018-07-17T01:55:19.025Z,1021.36853258
2018-07-17T01:55:31.417Z,1021.36853258
2018-07-17T01:55:43.818Z,1021.36853258
2018-07-17T01:55:56.204Z,1021.36853258
2018-07-17T01:56:08.614Z,1021.26694094
2018-07-17T01:56:21.018Z,1021.26694094
2018-07-17T01:56:33.416Z,1021.26694094
2018-07-17T01:56:45.838Z,1021.26694094
2018-07-17T01:56:58.331Z,1021.26694094
2018-07-17T01:57:10.746Z,1021.26694094
2018-07-17T01:57:23.140Z,1021.26694094
2018-07-17T01:57:35.591Z,1021.26694094
2018-07-17T01:57:47.974Z,1021.26694094
2018-07-17T01:58:00.423Z,1021.30080482
2018-07-17T01:58:12.821Z,1021.30080482
2018-07-17T01:58:25.238Z,1021.30080482
2018-07-17T01:58:37.688Z,1021.30080482
2018-07-17T01:58:50.076Z,1021.30080482
2018-07-17T01:59:02.481Z,1021.40239646
2018-07-17T01:59:14.917Z,1021.40239646
2018-07-17T01:59:27.301Z,1021.40239646
2018-07-17T01:59:39.720Z,1021.40239646
2018-07-17T01:59:52.113Z,1021.40239646
2018-07-17T02:00:04.587Z,1021.3346687
2018-07-17T02:00:17.259Z,1021.3346687
2018-07-17T02:00:29.670Z,1021.3346687
2018-07-17T02:00:42.092Z,1021.3346687
2018-07-17T02:00:54.561Z,1021.3346687
2018-07-17T02:01:07.001Z,1021.36853258
2018-07-17T02:01:19.436Z,1021.36853258
2018-07-17T02:01:31.918Z,1021.36853258
2018-07-17T02:01:44.332Z,1021.36853258
2018-07-17T02:01:56.825Z,1021.36853258
2018-07-17T02:02:09.250Z,1021.3346687
2018-07-17T02:02:21.742Z,1021.3346687
2018-07-17T02:02:34.224Z,1021.3346687
2018-07-17T02:02:46.672Z,1021.3346687
2018-07-17T02:02:59.074Z,1021.40239646
2018-07-17T02:03:11.525Z,1021.40239646
2018-07-17T02:03:23.936Z,1021.40239646
2018-07-17T02:03:36.351Z,1021.40239646
2018-07-17T02:03:48.767Z,1021.40239646
2018-07-17T02:04:01.231Z,1021.26694094
2018-07-17T02:04:13.649Z,1021.26694094
2018-07-17T02:04:26.120Z,1021.26694094
2018-07-17T02:04:38.569Z,1021.26694094
2018-07-17T02:04:51.363Z,1021.26694094
2018-07-17T02:05:05.157Z,1021.36853258
2018-07-17T02:05:17.559Z,1021.36853258
2018-07-17T02:05:29.957Z,1021.36853258
2018-07-17T02:05:42.369Z,1021.36853258
2018-07-17T02:05:54.786Z,1021.36853258
2018-07-17T02:06:07.205Z,1021.43626034
2018-07-17T02:06:19.640Z,1021.43626034
2018-07-17T02:06:32.103Z,1021.43626034
2018-07-17T02:06:44.503Z,1021.43626034
2018-07-17T02:06:56.960Z,1021.43626034
2018-07-17T02:07:09.352Z,1021.36853258
2018-07-17T02:07:21.735Z,1021.36853258
2018-07-17T02:07:34.259Z,1021.36853258
2018-07-17T02:07:46.666Z,1021.36853258
2018-07-17T02:07:59.161Z,1021.30080482